Terminal Aerodrome Forecast
Issued by NWS Brownsville, TX

Home | Current Version | Previous Version | Text Only | Print | Product List | Glossary On
Versions: 1 2 3 4 5 6 7 8 9 10 11 12 13 14 15 16 17 18 19 20
000
FTUS44 KBRO 290520
TAFBRO
TAF
KBRO 290520Z 2906/3006 16017G27KT P6SM BKN017 OVC029 WS020/17045KT
     FM291500 21012KT P6SM FEW025
     FM291800 04010KT P6SM FEW030=

USA.gov is the U.S. government's official web portal to all federal, state and local government web resources and services.